createdAt,value
2023-07-14T00:01:57.177Z,-80
2023-07-14T00:04:33.270Z,-79
2023-07-14T00:07:02.403Z,-80
2023-07-14T00:09:33.169Z,-80
2023-07-14T00:12:02.081Z,-80
2023-07-14T00:14:30.776Z,-80
2023-07-14T00:16:59.508Z,-80
2023-07-14T00:19:28.166Z,-81
2023-07-14T00:21:56.547Z,-80
2023-07-14T00:24:25.687Z,-80
2023-07-14T00:26:57.898Z,-81
2023-07-14T00:29:40.241Z,-81
2023-07-14T00:32:19.292Z,-81
2023-07-14T00:34:47.896Z,-80
2023-07-14T00:37:19.183Z,-80
2023-07-14T00:39:47.483Z,-80
2023-07-14T00:42:17.727Z,-80
2023-07-14T00:44:47.034Z,-80
2023-07-14T00:47:27.420Z,-80
2023-07-14T00:49:57.411Z,-81
2023-07-14T00:52:39.635Z,-80
2023-07-14T00:55:28.569Z,-80
2023-07-14T00:57:57.776Z,-80
2023-07-14T01:00:32.426Z,-80
2023-07-14T01:03:03.121Z,-80
2023-07-14T01:05:32.270Z,-80
2023-07-14T01:08:00.840Z,-80
2023-07-14T01:10:30.672Z,-80
2023-07-14T01:13:06.399Z,-80
2023-07-14T01:15:35.654Z,-80
2023-07-14T01:18:04.364Z,-80
2023-07-14T01:20:33.153Z,-80
2023-07-14T01:23:35.351Z,-80
2023-07-14T01:26:44.905Z,-80
2023-07-14T01:29:13.402Z,-80
2023-07-14T01:31:42.574Z,-80
2023-07-14T01:34:10.837Z,-80
2023-07-14T01:36:40.796Z,-80
2023-07-14T01:39:09.379Z,-80
2023-07-14T01:41:37.760Z,-80
2023-07-14T01:44:08.010Z,-80
2023-07-14T01:46:36.634Z,-80
2023-07-14T01:49:45.382Z,-80
2023-07-14T01:52:19.938Z,-80
2023-07-14T01:54:54.434Z,-80
2023-07-14T01:57:27.860Z,-80
2023-07-14T02:00:12.702Z,-80
2023-07-14T02:02:42.980Z,-80
2023-07-14T02:05:24.127Z,-80
2023-07-14T02:07:52.544Z,-80
2023-07-14T02:10:22.337Z,-80
2023-07-14T02:12:52.017Z,-80
2023-07-14T02:15:25.813Z,-80
2023-07-14T02:17:56.004Z,-80
2023-07-14T02:20:36.516Z,-80
2023-07-14T02:23:07.973Z,-80
2023-07-14T02:25:44.678Z,-80
2023-07-14T02:28:13.314Z,-80
2023-07-14T02:30:46.157Z,-80
2023-07-14T02:33:14.345Z,-80
2023-07-14T02:36:24.949Z,-80
2023-07-14T02:38:56.626Z,-80
2023-07-14T02:41:40.693Z,-80
2023-07-14T02:44:15.384Z,-80
2023-07-14T02:46:53.260Z,-80
2023-07-14T02:49:21.566Z,-80
2023-07-14T02:51:49.889Z,-80
2023-07-14T02:54:18.131Z,-81
2023-07-14T02:56:46.448Z,-80
2023-07-14T02:59:15.450Z,-80
2023-07-14T03:01:43.708Z,-80
2023-07-14T03:04:12.080Z,-80
2023-07-14T03:06:40.330Z,-80
2023-07-14T03:09:08.663Z,-80
2023-07-14T03:11:37.144Z,-80
2023-07-14T03:14:06.986Z,-80
2023-07-14T03:16:39.025Z,-80
2023-07-14T03:19:07.263Z,-80
2023-07-14T03:21:35.536Z,-80
2023-07-14T03:24:03.867Z,-80
2023-07-14T03:26:39.007Z,-80
2023-07-14T03:29:07.325Z,-81
2023-07-14T03:31:35.624Z,-80
2023-07-14T03:34:03.873Z,-81
2023-07-14T03:36:32.090Z,-80
2023-07-14T03:39:26.010Z,-80
2023-07-14T03:41:56.521Z,-80
2023-07-14T03:44:25.029Z,-80
2023-07-14T03:46:53.549Z,-80
2023-07-14T03:49:22.015Z,-80
2023-07-14T03:51:50.241Z,-80
2023-07-14T03:54:18.618Z,-80
2023-07-14T03:56:47.028Z,-80
2023-07-14T03:59:15.503Z,-80
2023-07-14T04:01:43.868Z,-80
2023-07-14T04:04:12.151Z,-80
2023-07-14T04:06:40.449Z,-80
2023-07-14T04:09:08.726Z,-81
2023-07-14T04:11:37.530Z,-81
2023-07-14T04:14:07.729Z,-81
2023-07-14T04:16:40.026Z,-81
2023-07-14T04:19:08.613Z,-82
2023-07-14T04:21:36.984Z,-82
2023-07-14T04:24:05.383Z,-82
2023-07-14T04:26:33.601Z,-82
2023-07-14T04:29:01.950Z,-82
2023-07-14T04:31:30.350Z,-82
2023-07-14T04:33:58.616Z,-80
2023-07-14T04:36:26.878Z,-82
2023-07-14T04:39:14.503Z,-82
2023-07-14T04:41:42.942Z,-82
2023-07-14T04:44:16.424Z,-82
2023-07-14T04:46:46.657Z,-82
2023-07-14T04:49:16.117Z,-82
2023-07-14T04:51:45.062Z,-82
2023-07-14T04:54:13.623Z,-84
2023-07-14T04:56:43.376Z,-83
2023-07-14T04:59:15.806Z,-81
2023-07-14T05:01:44.093Z,-80
2023-07-14T05:04:12.568Z,-81
2023-07-14T05:06:41.506Z,-80
2023-07-14T05:09:11.484Z,-80
2023-07-14T05:11:41.558Z,-81
2023-07-14T05:14:09.986Z,-80
2023-07-14T05:16:38.521Z,-80
2023-07-14T05:19:06.813Z,-81
2023-07-14T05:21:35.057Z,-81
2023-07-14T05:24:05.125Z,-81
2023-07-14T05:26:33.607Z,-81
2023-07-14T05:29:03.611Z,-81
2023-07-14T05:31:33.516Z,-81
2023-07-14T05:34:01.816Z,-81
2023-07-14T05:36:30.044Z,-81
2023-07-14T05:38:58.268Z,-81
2023-07-14T05:41:26.489Z,-81
2023-07-14T05:43:54.704Z,-81
2023-07-14T05:46:22.981Z,-80
2023-07-14T05:48:51.280Z,-83
2023-07-14T05:51:19.554Z,-84
2023-07-14T05:53:47.893Z,-84
2023-07-14T05:56:16.220Z,-83
2023-07-14T05:58:44.450Z,-84
2023-07-14T06:01:13.784Z,-83
2023-07-14T06:03:43.042Z,-84
2023-07-14T06:06:11.527Z,-84
2023-07-14T06:08:40.046Z,-83
2023-07-14T06:11:08.798Z,-84
2023-07-14T06:13:37.095Z,-84
2023-07-14T06:16:05.579Z,-84
2023-07-14T06:18:33.840Z,-84
2023-07-14T06:21:02.459Z,-84
2023-07-14T06:23:31.232Z,-81
2023-07-14T06:26:00.043Z,-81
2023-07-14T06:28:28.680Z,-81
2023-07-14T06:31:05.407Z,-81
2023-07-14T06:33:35.371Z,-81
2023-07-14T06:36:04.547Z,-83
2023-07-14T06:38:33.506Z,-84
2023-07-14T06:41:04.797Z,-84
2023-07-14T06:43:34.679Z,-84
2023-07-14T06:46:02.982Z,-81
2023-07-14T06:48:31.494Z,-82
2023-07-14T06:50:59.805Z,-81
2023-07-14T06:53:28.783Z,-81
2023-07-14T06:55:57.102Z,-81
2023-07-14T06:58:26.512Z,-81
2023-07-14T07:00:56.472Z,-81
2023-07-14T07:03:24.798Z,-81
2023-07-14T07:05:53.665Z,-81
2023-07-14T07:08:22.300Z,-81
2023-07-14T07:10:50.526Z,-81
2023-07-14T07:13:18.757Z,-81
2023-07-14T07:15:48.376Z,-81
2023-07-14T07:18:20.214Z,-81
2023-07-14T07:20:48.603Z,-81
2023-07-14T07:23:16.948Z,-81
2023-07-14T07:25:53.418Z,-81
2023-07-14T07:28:22.155Z,-81
2023-07-14T07:30:50.492Z,-81
2023-07-14T07:33:18.877Z,-81
2023-07-14T07:35:47.200Z,-82
2023-07-14T07:38:15.716Z,-80
2023-07-14T07:40:47.172Z,-81
2023-07-14T07:43:15.480Z,-81
2023-07-14T07:45:50.212Z,-81
2023-07-14T07:48:18.447Z,-81
2023-07-14T07:50:49.009Z,-81
2023-07-14T07:53:17.266Z,-84
2023-07-14T07:55:56.239Z,-81
2023-07-14T07:58:28.315Z,-81
2023-07-14T08:01:06.290Z,-81
2023-07-14T08:03:36.038Z,-81
2023-07-14T08:06:07.726Z,-81
2023-07-14T08:08:36.466Z,-81
2023-07-14T08:11:05.149Z,-80
2023-07-14T08:13:34.037Z,-81
2023-07-14T08:16:02.242Z,-81
2023-07-14T08:18:31.273Z,-81
2023-07-14T08:21:00.671Z,-80
2023-07-14T08:23:31.257Z,-81
2023-07-14T08:26:05.925Z,-81
2023-07-14T08:28:34.297Z,-81
2023-07-14T08:31:12.263Z,-82
2023-07-14T08:33:45.945Z,-81
2023-07-14T08:36:17.526Z,-81
2023-07-14T08:38:49.227Z,-81
2023-07-14T08:41:34.257Z,-81
2023-07-14T08:44:22.454Z,-81
2023-07-14T08:47:24.012Z,-81
2023-07-14T08:50:02.523Z,-82
2023-07-14T08:52:39.683Z,-82
2023-07-14T08:55:21.521Z,-81
2023-07-14T08:58:17.466Z,-82
2023-07-14T09:00:54.124Z,-82
2023-07-14T09:03:37.209Z,-82
2023-07-14T09:06:27.967Z,-82
2023-07-14T09:08:56.824Z,-82
2023-07-14T09:11:32.067Z,-80
2023-07-14T09:14:35.132Z,-82
2023-07-14T09:17:34.019Z,-82
2023-07-14T09:20:14.798Z,-82
2023-07-14T09:23:04.460Z,-82
2023-07-14T09:25:58.894Z,-82
2023-07-14T09:28:40.683Z,-81
2023-07-14T09:31:42.925Z,-82
2023-07-14T09:34:25.556Z,-82
2023-07-14T09:36:54.794Z,-82
2023-07-14T09:39:43.250Z,-82
2023-07-14T09:42:28.514Z,-82
2023-07-14T09:45:12.297Z,-82
2023-07-14T09:47:41.103Z,-82
2023-07-14T09:50:15.940Z,-82
2023-07-14T09:53:05.724Z,-81
2023-07-14T09:55:59.857Z,-82
2023-07-14T09:58:35.126Z,-82
2023-07-14T10:01:16.163Z,-82
2023-07-14T10:03:50.963Z,-82
2023-07-14T10:06:27.774Z,-82
2023-07-14T10:09:00.890Z,-82
2023-07-14T10:11:32.830Z,-82
2023-07-14T10:14:20.170Z,-82
2023-07-14T10:16:49.036Z,-82
2023-07-14T10:19:23.205Z,-81
2023-07-14T10:21:56.477Z,-82
2023-07-14T10:24:25.325Z,-82
2023-07-14T10:26:59.962Z,-82
2023-07-14T10:29:31.460Z,-82
2023-07-14T10:32:27.025Z,-82
2023-07-14T10:35:15.841Z,-82
2023-07-14T10:38:04.344Z,-82
2023-07-14T10:40:40.850Z,-83
2023-07-14T10:43:19.583Z,-82
2023-07-14T10:45:54.516Z,-82
2023-07-14T10:48:48.293Z,-82
2023-07-14T10:51:48.733Z,-82
2023-07-14T10:54:22.210Z,-82
2023-07-14T10:57:14.293Z,-82
2023-07-14T10:59:57.904Z,-82
2023-07-14T11:02:36.122Z,-82
2023-07-14T11:05:17.463Z,-82
2023-07-14T11:07:45.821Z,-82
2023-07-14T11:10:37.964Z,-83
2023-07-14T11:13:41.290Z,-84
2023-07-14T11:16:16.096Z,-84
2023-07-14T11:19:13.820Z,-83
2023-07-14T11:21:44.843Z,-84
2023-07-14T11:24:28.787Z,-83
2023-07-14T11:27:00.733Z,-83
2023-07-14T11:29:34.124Z,-83
2023-07-14T11:32:02.960Z,-83
2023-07-14T11:34:51.283Z,-83
2023-07-14T11:37:51.349Z,-84
2023-07-14T11:40:25.065Z,-83
2023-07-14T11:42:57.934Z,-83
2023-07-14T11:45:30.241Z,-83
2023-07-14T11:48:02.201Z,-83
2023-07-14T11:50:42.513Z,-86
2023-07-14T11:53:34.878Z,-85
2023-07-14T11:56:27.841Z,-85
2023-07-14T11:59:25.701Z,-85
2023-07-14T12:01:58.313Z,-85
2023-07-14T12:04:34.246Z,-85
2023-07-14T12:07:19.979Z,-86
2023-07-14T12:10:10.322Z,-86
2023-07-14T12:12:41.032Z,-86
2023-07-14T12:15:50.437Z,-85
2023-07-14T12:18:37.550Z,-85
2023-07-14T12:21:17.496Z,-85
2023-07-14T12:23:55.678Z,-86
2023-07-14T12:26:26.731Z,-85
2023-07-14T12:28:54.962Z,-85
2023-07-14T12:31:23.814Z,-85
2023-07-14T12:33:52.057Z,-85
2023-07-14T12:36:25.197Z,-85
2023-07-14T12:38:54.362Z,-85
2023-07-14T12:41:23.044Z,-85
2023-07-14T12:44:02.860Z,-85
2023-07-14T12:46:40.444Z,-85
2023-07-14T12:49:38.585Z,-85
2023-07-14T12:52:10.750Z,-84
2023-07-14T12:54:43.135Z,-85
2023-07-14T12:57:18.226Z,-85
2023-07-14T12:59:54.486Z,-85
2023-07-14T13:02:22.697Z,-85
2023-07-14T13:04:51.061Z,-85
2023-07-14T13:07:28.051Z,-85
2023-07-14T13:10:21.365Z,-85
2023-07-14T13:12:53.594Z,-85
2023-07-14T13:15:22.375Z,-85
2023-07-14T13:17:52.113Z,-85
2023-07-14T13:20:29.163Z,-85
2023-07-14T13:23:38.774Z,-85
2023-07-14T13:26:09.060Z,-85
2023-07-14T13:29:06.257Z,-85
2023-07-14T13:31:39.641Z,-85
2023-07-14T13:34:24.997Z,-85
2023-07-14T13:36:54.791Z,-85
2023-07-14T13:39:32.403Z,-86
2023-07-14T13:42:03.761Z,-85
2023-07-14T13:44:54.524Z,-85
2023-07-14T13:47:47.259Z,-85
2023-07-14T13:50:16.097Z,-85
2023-07-14T13:52:44.372Z,-82
2023-07-14T13:55:23.202Z,-85
2023-07-14T13:57:52.229Z,-86
2023-07-14T14:00:24.843Z,-85
2023-07-14T14:02:56.633Z,-85
2023-07-14T14:05:29.454Z,-86
2023-07-14T14:07:58.212Z,-86
2023-07-14T14:10:28.862Z,-83
2023-07-14T14:12:58.486Z,-84
2023-07-14T14:15:40.046Z,-83
2023-07-14T14:18:24.042Z,-85
2023-07-14T14:20:54.262Z,-85
2023-07-14T14:23:22.653Z,-85
2023-07-14T14:25:52.075Z,-86
2023-07-14T14:28:23.474Z,-85
2023-07-14T14:30:58.924Z,-85
2023-07-14T14:33:33.623Z,-85
2023-07-14T14:36:01.933Z,-85
2023-07-14T14:38:44.219Z,-85
2023-07-14T14:41:30.212Z,-85
2023-07-14T14:43:58.809Z,-86
2023-07-14T14:46:27.573Z,-85
2023-07-14T14:48:56.007Z,-85
2023-07-14T14:51:24.313Z,-85
2023-07-14T14:53:52.581Z,-85
2023-07-14T14:56:30.851Z,-85
2023-07-14T14:59:09.957Z,-85
2023-07-14T15:01:43.504Z,-85
2023-07-14T15:04:24.382Z,-85
2023-07-14T15:06:53.390Z,-86
2023-07-14T15:09:24.169Z,-86
2023-07-14T15:11:58.573Z,-85
2023-07-14T15:14:37.889Z,-85
2023-07-14T15:17:24.295Z,-86
2023-07-14T15:19:53.086Z,-86
2023-07-14T15:22:24.784Z,-86
2023-07-14T15:24:53.575Z,-86
2023-07-14T15:27:31.373Z,-86
2023-07-14T15:30:14.734Z,-86
2023-07-14T15:32:43.303Z,-86
2023-07-14T15:35:23.879Z,-85
2023-07-14T15:37:57.013Z,-82
2023-07-14T15:40:48.841Z,-84
2023-07-14T15:43:29.771Z,-86
2023-07-14T15:46:01.062Z,-85
2023-07-14T15:48:42.529Z,-85
2023-07-14T15:51:29.426Z,-85
2023-07-14T15:54:06.699Z,-85
2023-07-14T15:56:36.803Z,-85
2023-07-14T15:59:05.049Z,-85
2023-07-14T16:01:33.671Z,-85
2023-07-14T16:04:03.510Z,-85
2023-07-14T16:06:33.508Z,-85
2023-07-14T16:09:02.018Z,-84
2023-07-14T16:11:37.756Z,-85
2023-07-14T16:14:09.147Z,-87
2023-07-14T16:16:37.520Z,-86
2023-07-14T16:19:07.834Z,-85
2023-07-14T16:21:45.340Z,-85
2023-07-14T16:24:21.049Z,-84
2023-07-14T16:26:53.502Z,-86
2023-07-14T16:29:22.570Z,-86
2023-07-14T16:31:51.345Z,-86
2023-07-14T16:34:19.755Z,-84
2023-07-14T16:36:58.970Z,-85
2023-07-14T16:39:29.276Z,-85
2023-07-14T16:41:57.624Z,-85
2023-07-14T16:44:26.691Z,-85
2023-07-14T16:46:58.038Z,-85
2023-07-14T16:49:26.954Z,-85
2023-07-14T16:51:56.263Z,-85
2023-07-14T16:54:37.227Z,-85
2023-07-14T16:57:08.355Z,-84
2023-07-14T16:59:36.605Z,-85
2023-07-14T17:02:04.982Z,-85
2023-07-14T17:04:33.706Z,-85
2023-07-14T17:07:02.394Z,-85
2023-07-14T17:09:30.641Z,-85
2023-07-14T17:11:59.734Z,-85
2023-07-14T17:14:31.367Z,-86
2023-07-14T17:17:01.984Z,-85
2023-07-14T17:19:30.389Z,-85
2023-07-14T17:22:02.290Z,-84
2023-07-14T17:24:31.400Z,-85
2023-07-14T17:27:00.735Z,-85
2023-07-14T17:29:32.553Z,-85
2023-07-14T17:32:05.019Z,-85
2023-07-14T17:34:33.939Z,-84
2023-07-14T17:37:03.134Z,-85
2023-07-14T17:39:46.216Z,-85
2023-07-14T17:42:24.386Z,-85
2023-07-14T17:44:56.190Z,-85
2023-07-14T17:47:25.154Z,-85
2023-07-14T17:49:53.564Z,-86
2023-07-14T17:52:21.916Z,-85
2023-07-14T17:54:50.161Z,-85
2023-07-14T17:57:23.070Z,-85
2023-07-14T17:59:53.452Z,-81
2023-07-14T18:02:26.907Z,-81
2023-07-14T18:04:55.281Z,-80
2023-07-14T18:07:23.855Z,-81
2023-07-14T18:09:52.226Z,-81
2023-07-14T18:12:21.082Z,-81
2023-07-14T18:14:50.150Z,-80
2023-07-14T18:17:21.285Z,-80
2023-07-14T18:19:49.803Z,-81
2023-07-14T18:22:28.191Z,-80
2023-07-14T18:24:58.618Z,-80
2023-07-14T18:27:26.930Z,-82
2023-07-14T18:29:56.011Z,-83
2023-07-14T18:32:24.352Z,-81
2023-07-14T18:34:54.061Z,-80
2023-07-14T18:37:22.331Z,-80
2023-07-14T18:39:52.206Z,-81
2023-07-14T18:42:25.956Z,-81
2023-07-14T18:44:55.223Z,-81
2023-07-14T18:47:23.646Z,-81
2023-07-14T18:49:51.992Z,-82
2023-07-14T18:52:20.444Z,-81
2023-07-14T18:54:48.752Z,-81
2023-07-14T18:57:20.559Z,-81
2023-07-14T18:59:58.554Z,-81
2023-07-14T19:02:33.664Z,-81
2023-07-14T19:05:09.022Z,-81
2023-07-14T19:07:37.720Z,-81
2023-07-14T19:10:07.064Z,-81
2023-07-14T19:12:38.786Z,-81
2023-07-14T19:15:18.670Z,-81
2023-07-14T19:17:51.965Z,-81
2023-07-14T19:20:20.854Z,-81
2023-07-14T19:22:51.279Z,-82
2023-07-14T19:25:23.082Z,-81
2023-07-14T19:27:51.956Z,-81
2023-07-14T19:30:22.594Z,-80
2023-07-14T19:32:58.383Z,-82
2023-07-14T19:35:26.716Z,-80
2023-07-14T19:37:54.972Z,-80
2023-07-14T19:40:27.276Z,-80
2023-07-14T19:42:55.877Z,-82
2023-07-14T19:45:25.834Z,-80
2023-07-14T19:47:54.409Z,-80
2023-07-14T19:50:24.105Z,-80
2023-07-14T19:52:52.733Z,-81
2023-07-14T19:55:29.416Z,-81
2023-07-14T19:57:58.091Z,-80
2023-07-14T20:00:26.350Z,-81
2023-07-14T20:02:54.625Z,-81
2023-07-14T20:05:25.370Z,-81
2023-07-14T20:07:54.078Z,-80
2023-07-14T20:10:24.116Z,-80
2023-07-14T20:12:53.747Z,-81
2023-07-14T20:15:25.110Z,-81
2023-07-14T20:17:53.994Z,-81
2023-07-14T20:20:22.362Z,-80
2023-07-14T20:22:53.877Z,-81
2023-07-14T20:25:23.297Z,-80
2023-07-14T20:27:54.005Z,-80
2023-07-14T20:30:24.087Z,-80
2023-07-14T20:32:53.711Z,-80
2023-07-14T20:35:25.458Z,-81
2023-07-14T20:37:53.901Z,-82
2023-07-14T20:40:22.892Z,-80
2023-07-14T20:42:51.119Z,-81
2023-07-14T20:45:22.451Z,-81
2023-07-14T20:47:50.893Z,-81
2023-07-14T20:50:19.808Z,-81
2023-07-14T20:52:50.998Z,-82
2023-07-14T20:55:30.670Z,-80
2023-07-14T20:58:01.692Z,-80
2023-07-14T21:00:29.965Z,-81
2023-07-14T21:02:58.389Z,-81
2023-07-14T21:05:26.744Z,-82
2023-07-14T21:07:55.075Z,-81
2023-07-14T21:10:24.590Z,-80
2023-07-14T21:12:52.882Z,-81
2023-07-14T21:15:21.141Z,-81
2023-07-14T21:17:49.415Z,-81
2023-07-14T21:20:17.763Z,-81
2023-07-14T21:22:46.743Z,-80
2023-07-14T21:25:18.342Z,-82
2023-07-14T21:27:49.354Z,-80
2023-07-14T21:30:17.764Z,-82
2023-07-14T21:32:46.076Z,-80
2023-07-14T21:35:21.835Z,-80
2023-07-14T21:37:50.369Z,-81
2023-07-14T21:40:18.858Z,-81
2023-07-14T21:42:48.288Z,-80
2023-07-14T21:45:26.056Z,-80
2023-07-14T21:47:54.459Z,-80
2023-07-14T21:50:22.895Z,-80
2023-07-14T21:52:58.444Z,-81
2023-07-14T21:55:26.757Z,-80
2023-07-14T21:57:55.177Z,-80
2023-07-14T22:00:23.400Z,-80
2023-07-14T22:02:51.975Z,-80
2023-07-14T22:05:20.412Z,-82
2023-07-14T22:07:48.670Z,-81
2023-07-14T22:10:18.354Z,-81
2023-07-14T22:12:46.806Z,-82
2023-07-14T22:15:22.904Z,-81
2023-07-14T22:17:52.453Z,-84
2023-07-14T22:20:22.215Z,-82
2023-07-14T22:22:50.726Z,-81
2023-07-14T22:25:19.064Z,-83
2023-07-14T22:27:47.592Z,-81
2023-07-14T22:30:15.862Z,-81
2023-07-14T22:32:47.182Z,-81
2023-07-14T22:35:16.090Z,-81
2023-07-14T22:37:47.737Z,-81
2023-07-14T22:40:18.491Z,-81
2023-07-14T22:42:47.356Z,-81
2023-07-14T22:45:18.435Z,-82
2023-07-14T22:47:47.371Z,-81
2023-07-14T22:50:17.010Z,-81
2023-07-14T22:52:47.021Z,-80
2023-07-14T22:55:24.065Z,-80
2023-07-14T22:57:52.581Z,-80
2023-07-14T23:00:21.174Z,-80
2023-07-14T23:02:49.607Z,-79
2023-07-14T23:05:23.554Z,-80
2023-07-14T23:07:52.631Z,-80
2023-07-14T23:10:22.114Z,-80
2023-07-14T23:12:50.944Z,-80
2023-07-14T23:15:20.191Z,-79
2023-07-14T23:17:48.571Z,-79
2023-07-14T23:20:16.969Z,-81
2023-07-14T23:22:45.044Z,-80
2023-07-14T23:25:22.691Z,-80
2023-07-14T23:27:51.288Z,-79
2023-07-14T23:30:19.570Z,-79
2023-07-14T23:32:49.087Z,-79
2023-07-14T23:35:20.063Z,-81
2023-07-14T23:37:48.419Z,-80
2023-07-14T23:40:19.217Z,-79
2023-07-14T23:42:47.970Z,-81
2023-07-14T23:45:25.378Z,-79
2023-07-14T23:47:54.018Z,-79
2023-07-14T23:50:22.328Z,-79
2023-07-14T23:52:51.582Z,-80
2023-07-14T23:55:23.584Z,-79
2023-07-14T23:57:52.999Z,-80
